createdAt,value
2018-07-08T00:00:12.218Z,83.72
2018-07-08T00:01:12.210Z,83.63
2018-07-08T00:02:12.189Z,83.82
2018-07-08T00:03:12.173Z,83.82
2018-07-08T00:04:12.161Z,83.68
2018-07-08T00:05:12.145Z,83.87
2018-07-08T00:06:12.131Z,84.39
2018-07-08T00:07:12.116Z,84.39
2018-07-08T00:08:12.102Z,84.39
2018-07-08T00:09:12.089Z,84.58
2018-07-08T00:10:12.071Z,84.45
2018-07-08T00:11:12.065Z,84.55
2018-07-08T00:12:12.045Z,84.55
2018-07-08T00:13:12.035Z,84.64
2018-07-08T00:14:12.020Z,84.74
2018-07-08T00:15:12.015Z,85.41
2018-07-08T00:16:11.985Z,85.21
2018-07-08T00:17:11.971Z,85.21
2018-07-08T00:18:11.957Z,85.41
2018-07-08T00:19:11.943Z,85.21
2018-07-08T00:20:11.926Z,85.21
2018-07-08T00:21:11.912Z,85.02
2018-07-08T00:22:11.899Z,85.79
2018-07-08T00:23:11.885Z,85.60
2018-07-08T00:24:11.868Z,85.69
2018-07-08T00:25:11.854Z,85.41
2018-07-08T00:26:11.838Z,85.60
2018-07-08T00:27:11.825Z,86.17
2018-07-08T00:28:11.817Z,86.46
2018-07-08T00:29:11.807Z,86.55
2018-07-08T00:30:11.781Z,86.36
2018-07-08T00:31:11.765Z,86.84
2018-07-08T00:32:11.749Z,87.08
2018-07-08T00:33:11.735Z,86.74
2018-07-08T00:34:11.729Z,87.08
2018-07-08T00:35:11.704Z,86.94
2018-07-08T00:36:11.692Z,87.03
2018-07-08T00:37:11.675Z,87.23
2018-07-08T00:38:11.662Z,87.13
2018-07-08T00:39:11.653Z,87.47
2018-07-08T00:40:11.632Z,87.66
2018-07-08T00:41:11.625Z,87.13
2018-07-08T00:42:11.613Z,87.27
2018-07-08T00:43:11.589Z,87.37
2018-07-08T00:44:11.572Z,87.47
2018-07-08T00:45:11.558Z,88.33
2018-07-08T00:46:11.583Z,88.13
2018-07-08T00:47:11.528Z,87.95
2018-07-08T00:48:11.514Z,88.71
2018-07-08T00:49:11.499Z,88.43
2018-07-08T00:50:11.483Z,88.43
2018-07-08T00:51:11.467Z,88.52
2018-07-08T00:52:11.462Z,88.23
2018-07-08T00:53:11.445Z,88.13
2018-07-08T00:54:11.426Z,88.13
2018-07-08T00:55:11.408Z,87.85
2018-07-08T00:56:11.404Z,88.13
2018-07-08T00:57:11.379Z,88.33
2018-07-08T00:58:11.364Z,88.23
2018-07-08T00:59:11.348Z,88.62
2018-07-08T01:00:11.334Z,88.71
2018-07-08T01:01:11.320Z,88.33
2018-07-08T01:02:11.306Z,88.81
2018-07-08T01:03:11.293Z,88.81
2018-07-08T01:04:11.275Z,89.38
2018-07-08T01:05:11.259Z,88.71
2018-07-08T01:06:11.244Z,88.43
2018-07-08T01:07:11.229Z,88.43
2018-07-08T01:08:11.214Z,89.09
2018-07-08T01:09:11.199Z,88.90
2018-07-08T01:10:11.192Z,88.62
2018-07-08T01:11:11.168Z,88.62
2018-07-08T01:12:11.156Z,88.81
2018-07-08T01:13:11.139Z,89.19
2018-07-08T01:14:11.130Z,89.48
2018-07-08T01:15:11.125Z,89.86
2018-07-08T01:16:11.109Z,89.76
2018-07-08T01:17:11.079Z,89.67
2018-07-08T01:18:11.064Z,89.81
2018-07-08T01:19:11.049Z,90.67
2018-07-08T01:20:11.033Z,90.58
2018-07-08T01:21:11.017Z,90.48
2018-07-08T01:22:11.005Z,90.77
2018-07-08T01:23:10.986Z,90.67
2018-07-08T01:24:10.973Z,90.77
2018-07-08T01:25:11.008Z,90.87
2018-07-08T01:26:10.944Z,90.96
2018-07-08T01:27:10.927Z,91.53
2018-07-08T01:28:10.912Z,91.63
2018-07-08T01:29:10.896Z,91.44
2018-07-08T01:30:10.883Z,91.44
2018-07-08T01:31:10.867Z,91.44
2018-07-08T01:32:10.851Z,91.35
2018-07-08T01:33:10.845Z,91.83
2018-07-08T01:34:10.831Z,91.92
2018-07-08T01:35:10.806Z,92.40
2018-07-08T01:36:10.790Z,92.30
2018-07-08T01:37:10.776Z,92.21
2018-07-08T01:38:10.767Z,92.40
2018-07-08T01:39:10.743Z,91.83
2018-07-08T01:40:10.730Z,92.40
2018-07-08T01:41:10.714Z,92.30
2018-07-08T01:42:10.703Z,92.02
2018-07-08T01:43:10.682Z,92.21
2018-07-08T01:44:10.671Z,92.40
2018-07-08T01:45:10.655Z,91.92
2018-07-08T01:46:10.639Z,91.92
2018-07-08T01:47:10.624Z,92.11
2018-07-08T01:48:10.609Z,92.30
2018-07-08T01:49:10.602Z,92.78
2018-07-08T01:50:10.577Z,92.21
2018-07-08T01:51:10.570Z,92.49
2018-07-08T01:52:10.597Z,92.11
2018-07-08T01:53:10.532Z,92.21
2018-07-08T01:54:10.517Z,92.40
2018-07-08T01:55:10.520Z,92.30
2018-07-08T01:56:10.484Z,92.30
2018-07-08T01:57:10.469Z,92.30
2018-07-08T01:58:10.455Z,92.69
2018-07-08T01:59:10.440Z,92.78
2018-07-08T02:00:10.423Z,92.69
2018-07-08T02:01:10.425Z,92.69
2018-07-08T02:02:10.392Z,93.16
2018-07-08T02:03:10.376Z,92.69
2018-07-08T02:04:10.361Z,92.88
2018-07-08T02:05:10.349Z,92.49
2018-07-08T02:06:10.331Z,91.83
2018-07-08T02:07:10.317Z,91.63
2018-07-08T02:08:10.302Z,91.53
2018-07-08T02:09:10.287Z,91.73
2018-07-08T02:10:10.274Z,91.83
2018-07-08T02:11:10.254Z,91.53
2018-07-08T02:12:10.238Z,92.02
2018-07-08T02:13:10.234Z,91.83
2018-07-08T02:14:10.208Z,91.73
2018-07-08T02:15:10.192Z,92.21
2018-07-08T02:16:10.177Z,92.69
2018-07-08T02:17:10.161Z,92.59
2018-07-08T02:18:10.146Z,92.49
2018-07-08T02:19:10.132Z,92.78
2018-07-08T02:20:10.117Z,92.69
2018-07-08T02:21:10.101Z,92.59
2018-07-08T02:22:10.091Z,92.88
2018-07-08T02:23:10.068Z,92.69
2018-07-08T02:24:10.057Z,92.74
2018-07-08T02:25:10.037Z,92.69
2018-07-08T02:26:10.032Z,92.59
2018-07-08T02:27:10.017Z,92.69
2018-07-08T02:28:09.992Z,93.35
2018-07-08T02:29:09.975Z,93.16
2018-07-08T02:30:09.960Z,92.78
2018-07-08T02:31:09.944Z,92.59
2018-07-08T02:32:09.928Z,92.88
2018-07-08T02:33:09.914Z,93.35
2018-07-08T02:34:09.905Z,92.88
2018-07-08T02:35:09.883Z,93.35
2018-07-08T02:36:09.867Z,93.55
2018-07-08T02:37:09.853Z,93.26
2018-07-08T02:38:09.843Z,93.07
2018-07-08T02:39:09.819Z,93.16
2018-07-08T02:40:09.805Z,93.26
2018-07-08T02:41:09.789Z,92.78
2018-07-08T02:42:09.773Z,92.54
2018-07-08T02:43:09.758Z,93.12
2018-07-08T02:44:09.741Z,92.97
2018-07-08T02:45:09.740Z,93.93
2018-07-08T02:46:09.713Z,93.69
2018-07-08T02:47:09.694Z,93.69
2018-07-08T02:48:09.678Z,93.88
2018-07-08T02:49:09.667Z,94.17
2018-07-08T02:50:09.656Z,94.26
2018-07-08T02:51:09.632Z,94.36
2018-07-08T02:52:09.617Z,94.36
2018-07-08T02:53:09.609Z,93.88
2018-07-08T02:54:09.587Z,93.98
2018-07-08T02:55:09.574Z,93.60
2018-07-08T02:56:09.557Z,93.88
2018-07-08T02:57:09.540Z,94.26
2018-07-08T02:58:09.524Z,94.93
2018-07-08T02:59:09.507Z,94.93
2018-07-08T03:00:09.493Z,94.84
2018-07-08T03:01:09.476Z,94.74
2018-07-08T03:02:09.462Z,94.93
2018-07-08T03:03:09.445Z,94.74
2018-07-08T03:04:09.430Z,94.93
2018-07-08T03:05:09.421Z,94.93
2018-07-08T03:06:09.403Z,94.93
2018-07-08T03:07:09.437Z,95.03
2018-07-08T03:08:09.371Z,95.51
2018-07-08T03:09:09.352Z,95.32
2018-07-08T03:10:09.335Z,95.32
2018-07-08T03:11:09.318Z,94.93
2018-07-08T03:12:09.312Z,95.32
2018-07-08T03:13:09.296Z,95.32
2018-07-08T03:14:09.281Z,95.51
2018-07-08T03:15:09.258Z,95.51
2018-07-08T03:16:09.250Z,95.51
2018-07-08T03:17:09.228Z,95.32
2018-07-08T03:18:09.209Z,95.70
2018-07-08T03:19:09.194Z,95.32
2018-07-08T03:20:09.176Z,95.41
2018-07-08T03:21:09.162Z,95.70
2018-07-08T03:22:09.146Z,95.22
2018-07-08T03:23:09.130Z,95.41
2018-07-08T03:24:09.120Z,94.84
2018-07-08T03:25:09.098Z,95.32
2018-07-08T03:26:09.182Z,95.22
2018-07-08T03:27:09.067Z,95.70
2018-07-08T03:28:09.052Z,95.61
2018-07-08T03:29:09.036Z,96.08
2018-07-08T03:30:09.020Z,95.79
2018-07-08T03:31:09.009Z,95.79
2018-07-08T03:32:09.001Z,95.61
2018-07-08T03:33:08.972Z,95.51
2018-07-08T03:34:08.957Z,95.61
2018-07-08T03:35:08.942Z,95.22
2018-07-08T03:36:08.927Z,95.51
2018-07-08T03:37:08.909Z,94.93
2018-07-08T03:38:08.896Z,94.93
2018-07-08T03:39:08.880Z,95.22
2018-07-08T03:40:08.861Z,95.22
2018-07-08T03:41:08.846Z,94.93
2018-07-08T03:42:08.830Z,95.41
2018-07-08T03:43:08.814Z,95.12
2018-07-08T03:44:08.804Z,95.32
2018-07-08T03:45:08.783Z,95.70
2018-07-08T03:46:08.768Z,95.89
2018-07-08T03:47:08.750Z,95.32
2018-07-08T03:48:08.736Z,95.22
2018-07-08T03:49:08.720Z,95.79
2018-07-08T03:50:08.705Z,96.08
2018-07-08T03:51:08.687Z,95.70
2018-07-08T03:52:08.677Z,95.61
2018-07-08T03:53:08.659Z,95.41
2018-07-08T03:54:08.642Z,95.70
2018-07-08T03:55:08.624Z,95.61
2018-07-08T03:56:08.612Z,95.79
2018-07-08T03:57:08.592Z,95.98
2018-07-08T03:58:08.578Z,95.61
2018-07-08T03:59:08.560Z,95.98
2018-07-08T04:00:08.546Z,95.70
2018-07-08T04:01:08.535Z,95.98
2018-07-08T04:02:08.517Z,95.79
2018-07-08T04:03:08.498Z,95.79
2018-07-08T04:04:08.487Z,95.98
2018-07-08T04:05:08.475Z,95.41
2018-07-08T04:06:08.453Z,94.98
2018-07-08T04:07:08.436Z,95.22
2018-07-08T04:08:08.427Z,95.22
2018-07-08T04:09:08.406Z,95.03
2018-07-08T04:10:08.393Z,95.17
2018-07-08T04:11:08.372Z,94.70
2018-07-08T04:12:08.407Z,94.50
2018-07-08T04:13:08.343Z,94.70
2018-07-08T04:14:08.327Z,94.60
2018-07-08T04:15:08.318Z,94.70
2018-07-08T04:16:08.300Z,94.89
2018-07-08T04:17:08.282Z,94.21
2018-07-08T04:18:08.265Z,94.31
2018-07-08T04:19:08.248Z,94.60
2018-07-08T04:20:08.235Z,94.31
2018-07-08T04:21:08.217Z,94.50
2018-07-08T04:22:08.203Z,94.31
2018-07-08T04:23:08.183Z,94.31
2018-07-08T04:24:08.171Z,94.31
2018-07-08T04:25:08.158Z,94.31
2018-07-08T04:26:08.147Z,94.12
2018-07-08T04:27:08.123Z,93.74
2018-07-08T04:28:08.107Z,94.41
2018-07-08T04:29:08.094Z,94.02
2018-07-08T04:30:08.077Z,93.64
2018-07-08T04:31:08.059Z,93.74
2018-07-08T04:32:08.062Z,94.12
2018-07-08T04:33:08.027Z,94.60
2018-07-08T04:34:08.013Z,94.60
2018-07-08T04:35:07.997Z,94.70
2018-07-08T04:36:07.980Z,95.07
2018-07-08T04:37:07.965Z,94.60
2018-07-08T04:38:07.959Z,94.31
2018-07-08T04:39:07.934Z,93.93
2018-07-08T04:40:07.920Z,93.64
2018-07-08T04:41:07.902Z,93.64
2018-07-08T04:42:07.887Z,94.12
2018-07-08T04:43:07.872Z,94.21
2018-07-08T04:44:07.858Z,94.31
2018-07-08T04:45:07.841Z,94.31
2018-07-08T04:46:07.827Z,94.12
2018-07-08T04:47:07.817Z,93.84
2018-07-08T04:48:07.793Z,94.12
2018-07-08T04:49:07.807Z,93.93
2018-07-08T04:50:07.763Z,93.64
2018-07-08T04:51:07.745Z,93.74
2018-07-08T04:52:07.733Z,94.12
2018-07-08T04:53:07.717Z,94.41
2018-07-08T04:54:07.702Z,94.12
2018-07-08T04:55:07.684Z,94.89
2018-07-08T04:56:07.670Z,94.41
2018-07-08T04:57:07.654Z,94.21
2018-07-08T04:58:07.639Z,94.21
2018-07-08T04:59:07.625Z,94.98
2018-07-08T05:00:07.609Z,94.79
2018-07-08T05:01:07.643Z,94.79
2018-07-08T05:02:07.577Z,94.36
2018-07-08T05:03:07.561Z,94.31
2018-07-08T05:04:07.545Z,94.07
2018-07-08T05:05:07.531Z,94.60
2018-07-08T05:06:07.521Z,94.60
2018-07-08T05:07:07.500Z,94.93
2018-07-08T05:08:07.484Z,94.45
2018-07-08T05:09:07.469Z,93.79
2018-07-08T05:10:07.455Z,93.50
2018-07-08T05:11:07.438Z,93.50
2018-07-08T05:12:07.425Z,93.30
2018-07-08T05:13:07.415Z,93.12
2018-07-08T05:14:07.391Z,93.30
2018-07-08T05:15:07.377Z,92.63
2018-07-08T05:16:07.360Z,93.59
2018-07-08T05:17:07.346Z,93.02
2018-07-08T05:18:07.330Z,92.83
2018-07-08T05:19:07.317Z,92.49
2018-07-08T05:20:07.302Z,93.30
2018-07-08T05:21:07.285Z,93.59
2018-07-08T05:22:07.269Z,93.40
2018-07-08T05:23:07.255Z,93.50
2018-07-08T05:24:07.238Z,93.69
2018-07-08T05:25:07.223Z,93.50
2018-07-08T05:26:07.209Z,93.54
2018-07-08T05:27:07.193Z,93.02
2018-07-08T05:28:07.177Z,93.45
2018-07-08T05:29:07.162Z,92.87
2018-07-08T05:30:07.149Z,92.58
2018-07-08T05:31:07.132Z,92.68
2018-07-08T05:32:07.117Z,92.49
2018-07-08T05:33:07.102Z,92.49
2018-07-08T05:34:07.088Z,92.01
2018-07-08T05:35:07.080Z,91.63
2018-07-08T05:36:07.056Z,91.63
2018-07-08T05:37:07.043Z,91.53
2018-07-08T05:38:07.034Z,91.25
2018-07-08T05:39:07.011Z,91.72
2018-07-08T05:40:06.994Z,91.96
2018-07-08T05:41:06.985Z,91.10
2018-07-08T05:42:06.966Z,91.86
2018-07-08T05:43:06.951Z,90.91
2018-07-08T05:44:06.936Z,89.71
2018-07-08T05:45:06.922Z,87.11
2018-07-08T05:46:06.906Z,82.15
2018-07-08T05:47:06.889Z,76.98
2018-07-08T05:48:06.876Z,72.33
2018-07-08T05:49:06.861Z,69.48
2018-07-08T05:50:06.869Z,67.14
2018-07-08T05:51:06.834Z,64.76
2018-07-08T05:52:06.825Z,64.08
2018-07-08T05:53:06.805Z,62.28
2018-07-08T05:54:06.792Z,61.44
2018-07-08T05:55:06.778Z,61.25
2018-07-08T05:56:06.767Z,60.67
2018-07-08T05:57:06.755Z,60.50
2018-07-08T05:58:06.744Z,59.73
2018-07-08T05:59:06.732Z,58.14
2018-07-08T06:00:06.720Z,56.98
2018-07-08T06:01:06.709Z,55.68
2018-07-08T06:02:06.709Z,54.62
2018-07-08T06:03:06.690Z,55.58
2018-07-08T06:04:06.683Z,53.85
2018-07-08T06:05:06.670Z,53.67
2018-07-08T06:06:06.664Z,53.12
2018-07-08T06:07:06.650Z,52.06
2018-07-08T06:08:06.653Z,51.69
2018-07-08T06:09:06.636Z,50.94
2018-07-08T06:10:06.625Z,52.12
2018-07-08T06:11:06.615Z,54.88
2018-07-08T06:12:06.621Z,55.56
2018-07-08T06:13:06.602Z,54.06
2018-07-08T06:14:06.596Z,53.67
2018-07-08T06:15:06.590Z,52.15
2018-07-08T06:16:06.582Z,51.31
2018-07-08T06:17:06.578Z,50.74
2018-07-08T06:18:06.576Z,49.77
2018-07-08T06:19:06.562Z,49.51
2018-07-08T06:20:06.557Z,48.27
2018-07-08T06:21:06.552Z,47.32
2018-07-08T06:22:06.546Z,47.52
2018-07-08T06:23:06.543Z,45.98
2018-07-08T06:24:06.546Z,47.03
2018-07-08T06:25:06.533Z,47.25
2018-07-08T06:26:06.537Z,46.28
2018-07-08T06:27:06.532Z,46.01
2018-07-08T06:28:06.528Z,46.18
2018-07-08T06:29:06.520Z,46.35
2018-07-08T06:30:06.513Z,45.42
2018-07-08T06:31:06.513Z,45.57
2018-07-08T06:32:06.506Z,46.64
2018-07-08T06:33:06.504Z,46.35
2018-07-08T06:34:06.516Z,46.64
2018-07-08T06:35:06.496Z,47.86
2018-07-08T06:36:06.496Z,47.57
2018-07-08T06:37:06.493Z,46.35
2018-07-08T06:38:06.492Z,45.60
2018-07-08T06:39:06.533Z,45.48
2018-07-08T06:40:06.484Z,44.94
2018-07-08T06:41:06.482Z,43.79
2018-07-08T06:42:06.482Z,45.26
2018-07-08T06:43:06.479Z,48.59
2018-07-08T06:44:06.526Z,48.30
2018-07-08T06:45:06.475Z,48.08
2018-07-08T06:46:06.480Z,47.38
2018-07-08T06:47:06.483Z,47.28
2018-07-08T06:48:06.471Z,46.15
2018-07-08T06:49:06.468Z,44.78
2018-07-08T06:50:06.467Z,46.25
2018-07-08T06:51:06.466Z,43.96
2018-07-08T06:52:06.486Z,43.58
2018-07-08T06:53:06.467Z,47.55
2018-07-08T06:54:06.463Z,47.20
2018-07-08T06:55:06.462Z,45.87
2018-07-08T06:56:06.461Z,46.33
2018-07-08T06:57:06.510Z,46.62
2018-07-08T06:58:06.459Z,45.04
2018-07-08T06:59:06.457Z,43.01
2018-07-08T07:00:06.457Z,42.24
2018-07-08T07:01:06.456Z,42.53
2018-07-08T07:02:06.457Z,43.38
2018-07-08T07:03:06.465Z,44.70
2018-07-08T07:04:06.455Z,45.55
2018-07-08T07:05:06.456Z,47.62
2018-07-08T07:06:06.456Z,48.59
2018-07-08T07:07:06.463Z,48.71
2018-07-08T07:08:06.458Z,47.45
2018-07-08T07:09:06.457Z,47.74
2018-07-08T07:10:06.458Z,46.60
2018-07-08T07:11:06.457Z,45.55
2018-07-08T07:12:06.458Z,44.70
2018-07-08T07:13:06.461Z,43.19
2018-07-08T07:14:06.461Z,43.21
2018-07-08T07:15:06.468Z,42.43
2018-07-08T07:16:06.469Z,42.97
2018-07-08T07:17:06.469Z,44.31
2018-07-08T07:18:06.463Z,44.78
2018-07-08T07:19:06.463Z,45.72
2018-07-08T07:20:06.466Z,46.21
2018-07-08T07:21:06.463Z,46.84
2018-07-08T07:22:06.471Z,47.81
2018-07-08T07:23:06.488Z,47.91
2018-07-08T07:24:06.466Z,46.89
2018-07-08T07:25:06.472Z,45.45
2018-07-08T07:26:06.469Z,46.36
2018-07-08T07:27:06.470Z,47.47
2018-07-08T07:28:06.472Z,49.77
2018-07-08T07:29:06.503Z,49.75
2018-07-08T07:30:06.493Z,52.02
2018-07-08T07:31:06.472Z,52.82
2018-07-08T07:32:06.474Z,51.50
2018-07-08T07:33:06.482Z,51.86
2018-07-08T07:34:06.477Z,52.24
2018-07-08T07:35:06.474Z,52.02
2018-07-08T07:36:06.473Z,52.51
2018-07-08T07:37:06.498Z,53.19
2018-07-08T07:38:06.476Z,53.09
2018-07-08T07:39:06.483Z,53.71
2018-07-08T07:40:06.479Z,54.39
2018-07-08T07:41:06.485Z,55.62
2018-07-08T07:42:06.482Z,56.74
2018-07-08T07:43:06.475Z,58.62
2018-07-08T07:44:06.475Z,59.87
2018-07-08T07:45:06.476Z,59.52
2018-07-08T07:46:06.479Z,58.22
2018-07-08T07:47:06.473Z,56.68
2018-07-08T07:48:06.472Z,56.39
2018-07-08T07:49:06.468Z,55.55
2018-07-08T07:50:06.466Z,54.32
2018-07-08T07:51:06.545Z,54.03
2018-07-08T07:52:06.469Z,54.32
2018-07-08T07:53:06.457Z,55.07
2018-07-08T07:54:06.454Z,55.55
2018-07-08T07:55:06.452Z,55.90
2018-07-08T07:56:06.446Z,56.58
2018-07-08T07:57:06.441Z,58.17
2018-07-08T07:58:06.447Z,60.06
2018-07-08T07:59:06.513Z,60.71
2018-07-08T08:00:06.439Z,59.61
2018-07-08T08:01:06.424Z,57.64
2018-07-08T08:02:06.423Z,56.39
2018-07-08T08:03:06.415Z,54.58
2018-07-08T08:04:06.410Z,54.10
2018-07-08T08:05:06.410Z,53.78
2018-07-08T08:06:06.400Z,55.40
2018-07-08T08:07:06.389Z,55.98
2018-07-08T08:08:06.386Z,56.16
2018-07-08T08:09:06.380Z,55.68
2018-07-08T08:10:06.382Z,56.52
2018-07-08T08:11:06.375Z,56.52
2018-07-08T08:12:06.361Z,57.65
2018-07-08T08:13:06.394Z,58.14
2018-07-08T08:14:06.347Z,58.59
2018-07-08T08:15:06.341Z,59.55
2018-07-08T08:16:06.340Z,58.97
2018-07-08T08:17:06.326Z,58.59
2018-07-08T08:18:06.321Z,58.78
2018-07-08T08:19:06.314Z,58.30
2018-07-08T08:20:06.307Z,58.33
2018-07-08T08:21:06.378Z,57.10
2018-07-08T08:22:06.295Z,56.04
2018-07-08T08:23:06.286Z,55.76
2018-07-08T08:24:06.294Z,56.04
2018-07-08T08:25:06.272Z,55.46
2018-07-08T08:26:06.265Z,55.01
2018-07-08T08:27:06.257Z,54.82
2018-07-08T08:28:06.253Z,54.62
2018-07-08T08:29:06.243Z,54.72
2018-07-08T08:30:06.236Z,53.66
2018-07-08T08:31:06.235Z,54.24
2018-07-08T08:32:06.220Z,53.95
2018-07-08T08:33:06.216Z,54.05
2018-07-08T08:34:06.206Z,53.11
2018-07-08T08:35:06.206Z,52.72
2018-07-08T08:36:06.191Z,51.95
2018-07-08T08:37:06.181Z,52.01
2018-07-08T08:38:06.222Z,52.50
2018-07-08T08:39:06.164Z,53.92
2018-07-08T08:40:06.155Z,54.28
2018-07-08T08:41:06.147Z,54.66
2018-07-08T08:42:06.139Z,54.79
2018-07-08T08:43:06.133Z,54.31
2018-07-08T08:44:06.123Z,52.69
2018-07-08T08:45:06.115Z,51.17
2018-07-08T08:46:06.105Z,50.81
2018-07-08T08:47:06.107Z,49.65
2018-07-08T08:48:06.098Z,49.37
2018-07-08T08:49:06.078Z,50.07
2018-07-08T08:50:06.071Z,49.49
2018-07-08T08:51:06.062Z,48.90
2018-07-08T08:52:06.051Z,48.90
2018-07-08T08:53:06.050Z,48.23
2018-07-08T08:54:06.041Z,48.81
2018-07-08T08:55:06.033Z,49.75
2018-07-08T08:56:06.016Z,48.90
2018-07-08T08:57:06.007Z,48.47
2018-07-08T08:58:06.005Z,47.99
2018-07-08T08:59:05.990Z,48.61
2018-07-08T09:00:06.005Z,49.19
2018-07-08T09:01:05.974Z,49.65
2018-07-08T09:02:05.965Z,49.44
2018-07-08T09:03:05.955Z,49.60
2018-07-08T09:04:05.953Z,48.08
2018-07-08T09:05:05.938Z,47.43
2018-07-08T09:06:05.931Z,46.56
2018-07-08T09:07:05.922Z,46.58
2018-07-08T09:08:05.916Z,45.83
2018-07-08T09:09:05.903Z,46.03
2018-07-08T09:10:05.896Z,44.21
2018-07-08T09:11:05.887Z,42.78
2018-07-08T09:12:05.879Z,42.86
2018-07-08T09:13:05.881Z,43.82
2018-07-08T09:14:05.864Z,43.73
2018-07-08T09:15:05.858Z,42.96
2018-07-08T09:16:05.855Z,43.44
2018-07-08T09:17:05.846Z,44.77
2018-07-08T09:18:05.839Z,45.93
2018-07-08T09:19:05.830Z,46.39
2018-07-08T09:20:05.834Z,46.68
2018-07-08T09:21:05.817Z,46.70
2018-07-08T09:22:05.813Z,44.89
2018-07-08T09:23:05.808Z,43.55
2018-07-08T09:24:05.869Z,42.71
2018-07-08T09:25:05.800Z,41.55
2018-07-08T09:26:05.796Z,41.33
2018-07-08T09:27:05.792Z,41.35
2018-07-08T09:28:05.785Z,40.21
2018-07-08T09:29:05.786Z,39.55
2018-07-08T09:30:05.773Z,39.26
2018-07-08T09:31:05.771Z,38.96
2018-07-08T09:32:05.768Z,37.51
2018-07-08T09:33:05.770Z,36.91
2018-07-08T09:34:05.757Z,37.77
2018-07-08T09:35:05.765Z,38.85
2018-07-08T09:36:05.750Z,38.58
2018-07-08T09:37:05.747Z,38.68
2018-07-08T09:38:05.744Z,37.81
2018-07-08T09:39:05.821Z,37.61
2018-07-08T09:40:05.734Z,38.46
2018-07-08T09:41:05.734Z,39.61
2018-07-08T09:42:05.727Z,39.32
2018-07-08T09:43:05.730Z,39.12
2018-07-08T09:44:05.723Z,39.22
2018-07-08T09:45:05.728Z,39.24
2018-07-08T09:46:05.724Z,38.78
2018-07-08T09:47:05.725Z,37.61
2018-07-08T09:48:05.717Z,37.23
2018-07-08T09:49:05.711Z,37.13
2018-07-08T09:50:05.717Z,36.93
2018-07-08T09:51:05.706Z,36.54
2018-07-08T09:52:05.703Z,36.06
2018-07-08T09:53:05.707Z,36.27
2018-07-08T09:54:05.698Z,35.98
2018-07-08T09:55:05.701Z,35.69
2018-07-08T09:56:05.692Z,35.59
2018-07-08T09:57:05.697Z,35.69
2018-07-08T09:58:05.709Z,35.30
2018-07-08T09:59:05.691Z,35.40
2018-07-08T10:00:05.677Z,35.32
2018-07-08T10:01:05.673Z,34.58
2018-07-08T10:02:05.674Z,33.99
2018-07-08T10:03:05.671Z,32.65
2018-07-08T10:04:05.663Z,32.08
2018-07-08T10:05:05.657Z,31.60
2018-07-08T10:06:05.662Z,32.47
2018-07-08T10:07:05.652Z,32.00
2018-07-08T10:08:05.657Z,31.43
2018-07-08T10:09:05.645Z,29.89
2018-07-08T10:10:05.644Z,28.72
2018-07-08T10:11:05.648Z,28.14
2018-07-08T10:12:05.648Z,27.37
2018-07-08T10:13:05.641Z,27.19
2018-07-08T10:14:05.716Z,26.32
2018-07-08T10:15:05.640Z,26.32
2018-07-08T10:16:05.629Z,26.34
2018-07-08T10:17:05.636Z,27.61
2018-07-08T10:18:05.625Z,26.04
2018-07-08T10:19:05.638Z,26.14
2018-07-08T10:20:05.642Z,25.16
2018-07-08T10:21:05.624Z,25.47
2018-07-08T10:22:05.623Z,25.96
2018-07-08T10:23:05.623Z,26.45
2018-07-08T10:24:05.639Z,26.92
2018-07-08T10:25:05.627Z,26.43
2018-07-08T10:26:05.645Z,26.35
2018-07-08T10:27:05.633Z,26.86
2018-07-08T10:28:05.637Z,25.76
2018-07-08T10:29:05.636Z,25.86
2018-07-08T10:30:05.656Z,25.57
2018-07-08T10:31:05.641Z,25.29
2018-07-08T10:32:05.645Z,26.07
2018-07-08T10:33:05.647Z,25.89
2018-07-08T10:34:05.665Z,26.07
2018-07-08T10:35:05.671Z,26.06
2018-07-08T10:36:05.664Z,26.15
2018-07-08T10:37:05.676Z,27.20
2018-07-08T10:38:05.710Z,27.51
2018-07-08T10:39:05.689Z,27.22
2018-07-08T10:40:05.685Z,27.13
2018-07-08T10:41:05.690Z,26.93
2018-07-08T10:42:05.695Z,27.03
2018-07-08T10:43:05.711Z,27.33
2018-07-08T10:44:05.706Z,27.13
2018-07-08T10:45:05.712Z,26.74
2018-07-08T10:46:05.717Z,26.17
2018-07-08T10:47:05.730Z,24.40
2018-07-08T10:48:05.732Z,24.29
2018-07-08T10:49:05.748Z,24.99
2018-07-08T10:50:05.784Z,25.56
2018-07-08T10:51:05.752Z,25.26
2018-07-08T10:52:05.753Z,26.92
2018-07-08T10:53:05.760Z,27.40
2018-07-08T10:54:05.767Z,27.52
2018-07-08T10:55:05.776Z,26.92
2018-07-08T10:56:05.780Z,27.41
2018-07-08T10:57:05.802Z,27.41
2018-07-08T10:58:05.792Z,27.80
2018-07-08T10:59:05.806Z,27.41
2018-07-08T11:00:05.809Z,27.62
2018-07-08T11:01:05.813Z,26.57
2018-07-08T11:02:05.820Z,26.38
2018-07-08T11:03:05.823Z,26.29
2018-07-08T11:04:05.834Z,26.00
2018-07-08T11:05:05.846Z,25.62
2018-07-08T11:06:05.849Z,24.73
2018-07-08T11:07:05.859Z,24.52
2018-07-08T11:08:05.873Z,25.57
2018-07-08T11:09:05.874Z,26.73
2018-07-08T11:10:05.874Z,27.30
2018-07-08T11:11:05.888Z,28.45
2018-07-08T11:12:05.904Z,29.22
2018-07-08T11:13:05.921Z,29.81
2018-07-08T11:14:05.913Z,29.24
2018-07-08T11:15:05.915Z,29.04
2018-07-08T11:16:06.020Z,28.38
2018-07-08T11:17:05.922Z,28.58
2018-07-08T11:18:05.929Z,27.61
2018-07-08T11:19:05.934Z,27.41
2018-07-08T11:20:05.978Z,27.78
2018-07-08T11:21:05.949Z,28.34
2018-07-08T11:22:05.963Z,29.11
2018-07-08T11:23:05.958Z,29.88
2018-07-08T11:24:05.971Z,29.79
2018-07-08T11:25:05.988Z,29.33
2018-07-08T11:26:05.989Z,28.18
2018-07-08T11:27:06.003Z,27.41
2018-07-08T11:28:05.998Z,27.12
2018-07-08T11:29:06.026Z,27.03
2018-07-08T11:30:06.018Z,27.03
2018-07-08T11:31:06.024Z,25.57
2018-07-08T11:32:06.029Z,25.68
2018-07-08T11:33:06.041Z,25.78
2018-07-08T11:34:06.045Z,25.60
2018-07-08T11:35:06.042Z,24.52
2018-07-08T11:36:06.049Z,24.61
2018-07-08T11:37:06.065Z,25.18
2018-07-08T11:38:06.102Z,24.71
2018-07-08T11:39:06.072Z,24.12
2018-07-08T11:40:06.082Z,24.61
2018-07-08T11:41:06.086Z,25.29
2018-07-08T11:42:06.089Z,25.68
2018-07-08T11:43:06.102Z,25.20
2018-07-08T11:44:06.102Z,25.47
2018-07-08T11:45:06.110Z,25.36
2018-07-08T11:46:06.123Z,25.75
2018-07-08T11:47:06.119Z,25.93
2018-07-08T11:48:06.126Z,26.51
2018-07-08T11:49:06.132Z,26.61
2018-07-08T11:50:06.153Z,26.70
2018-07-08T11:51:06.139Z,26.31
2018-07-08T11:52:06.145Z,27.00
2018-07-08T11:53:06.165Z,26.31
2018-07-08T11:54:06.158Z,26.89
2018-07-08T11:55:06.163Z,27.55
2018-07-08T11:56:06.161Z,28.03
2018-07-08T11:57:06.172Z,28.50
2018-07-08T11:58:06.173Z,28.39
2018-07-08T11:59:06.177Z,29.35
2018-07-08T12:00:06.167Z,29.62
2018-07-08T12:01:06.168Z,30.40
2018-07-08T12:02:06.183Z,30.69
2018-07-08T12:03:06.168Z,30.98
2018-07-08T12:04:06.167Z,31.47
2018-07-08T12:05:06.205Z,31.57
2018-07-08T12:06:06.167Z,31.47
2018-07-08T12:07:06.165Z,32.05
2018-07-08T12:08:06.164Z,31.27
2018-07-08T12:09:06.161Z,30.79
2018-07-08T12:10:06.167Z,31.37
2018-07-08T12:11:06.156Z,31.57
2018-07-08T12:12:06.155Z,31.65
2018-07-08T12:13:06.150Z,31.55
2018-07-08T12:14:06.151Z,31.65
2018-07-08T12:16:46.596Z,32.71
2018-07-08T12:17:45.782Z,32.52
2018-07-08T12:18:45.782Z,33.49
2018-07-08T12:19:45.768Z,33.88
2018-07-08T12:20:45.763Z,33.78
2018-07-08T12:21:45.760Z,33.59
2018-07-08T12:22:45.752Z,33.86
2018-07-08T12:23:45.755Z,33.76
2018-07-08T12:24:45.748Z,34.16
2018-07-08T12:25:45.743Z,34.27
2018-07-08T12:26:45.740Z,34.56
2018-07-08T12:27:45.796Z,34.93
2018-07-08T12:28:45.733Z,34.44
2018-07-08T12:30:35.106Z,35.14
2018-07-08T12:31:35.104Z,35.05
2018-07-08T12:32:35.105Z,34.56
2018-07-08T12:33:35.101Z,34.85
2018-07-08T12:34:35.086Z,37.08
2018-07-08T12:35:35.077Z,35.53
2018-07-08T12:36:35.071Z,34.93
2018-07-08T12:37:35.064Z,35.22
2018-07-08T12:38:35.064Z,35.05
2018-07-08T12:39:35.053Z,33.96
2018-07-08T12:40:35.045Z,34.25
2018-07-08T12:41:35.044Z,34.25
2018-07-08T12:42:35.040Z,33.57
2018-07-08T12:43:35.028Z,33.98
2018-07-08T12:44:35.141Z,35.92
2018-07-08T12:45:35.013Z,36.00
2018-07-08T12:46:35.010Z,36.38
2018-07-08T12:47:34.999Z,37.84
2018-07-08T12:48:34.993Z,38.44
2018-07-08T12:49:35.001Z,37.86
2018-07-08T12:50:34.977Z,37.76
2018-07-08T12:51:34.971Z,39.32
2018-07-08T12:52:34.966Z,38.54
2018-07-08T12:53:34.962Z,37.08
2018-07-08T12:54:34.958Z,36.71